Tacoma, Washington
Current Conditions -  °F | °C
As of 6:58 PM on Wednesday 26 Nov 2014 (Local Time) from KTCM Reporting Station
Overcast Overcast  
Wind Chill: 53°   Ceiling: 11000
Heat Index: 53°   Visibility: 10mi
Dew Point: 53°   Wind: 0mph
Humidity: 99%   Direction: NA
Pressure: 29.93"   Gusts: NA
Location:  47.26°N, 122.44°W
Report Text: KTCM 270258Z AUTO 00000KT 10SM FEW046 BKN110 OVC130 12/11 A2993 RMK AO2 SLP139 T01150114 56024 $
Loading
Personal Weather Stations






























Interactive Weather Map New forecast layout! Learn more

10-Day Weather Forecast

Advertisements
Track Severe Weather on mobile